Time;durP1;ratioP1;P1;durP2;ratioP2;P2;SDS_P1;SDS_P2;PMS_P1;PMS_P2;Temp;Humidity;BMP_temperature;BMP_pressure;BME280_temperature;BME280_humidity;BME280_pressure;Samples;Min_cycle;Max_cycle;Signal;HPM_P1;HPM_P2
2022/09/22 00:01:17;;;;;;;3.40;2.27;;;;;;;7.78;65.17;99718.00;5093545;28;43874;-79
2022/09/22 00:03:47;;;;;;;3.60;2.17;;;;;;;7.75;65.30;99726.03;5092542;28;42213;-80
2022/09/22 00:06:17;;;;;;;3.33;2.33;;;;;;;7.69;65.15;99718.31;5075493;28;40114;-79
2022/09/22 00:08:47;;;;;;;3.03;2.00;;;;;;;7.70;65.60;99725.31;5058469;28;41745;-79
2022/09/22 00:11:17;;;;;;;3.40;2.77;;;;;;;7.66;66.01;99718.47;5092471;28;42713;-79
2022/09/22 00:13:51;;;;;;;3.13;2.13;;;;;;;7.63;66.02;99714.16;5092253;28;42008;-79
2022/09/22 00:16:21;;;;;;;2.27;2.07;;;;;;;7.60;65.77;99721.31;5090533;28;40225;-79
2022/09/22 00:18:49;;;;;;;3.83;2.17;;;;;;;7.57;65.99;99720.50;5075134;28;40877;-79
2022/09/22 00:21:19;;;;;;;2.17;1.97;;;;;;;7.43;65.84;99700.81;5074982;28;42112;-79
2022/09/22 00:23:47;;;;;;;2.37;1.80;;;;;;;7.38;65.79;99703.66;5058022;28;41152;-79
2022/09/22 00:26:20;;;;;;;2.37;1.70;;;;;;;7.47;66.00;99719.13;5075217;28;40119;-79
2022/09/22 00:28:51;;;;;;;2.93;1.90;;;;;;;7.44;65.75;99723.63;5057151;28;40304;-79
2022/09/22 00:31:21;;;;;;;2.23;1.80;;;;;;;7.40;65.87;99727.31;5074867;28;44605;-80
2022/09/22 00:33:49;;;;;;;2.23;1.60;;;;;;;7.30;65.72;99710.94;5091444;28;42263;-79
2022/09/22 00:36:18;;;;;;;2.23;2.03;;;;;;;7.35;65.82;99730.09;5074687;28;40193;-80
2022/09/22 00:38:49;;;;;;;2.40;2.03;;;;;;;7.31;66.00;99728.47;5092597;28;41639;-80
2022/09/22 00:41:18;;;;;;;2.00;1.60;;;;;;;7.31;65.87;99732.88;5074756;28;42012;-79
2022/09/22 00:43:49;;;;;;;2.93;1.80;;;;;;;7.29;65.88;99730.31;5074554;28;42349;-79
2022/09/22 00:46:21;;;;;;;2.20;1.53;;;;;;;7.27;65.93;99728.66;5071787;28;40899;-79
2022/09/22 00:48:53;;;;;;;2.17;1.90;;;;;;;7.25;65.77;99727.84;5074752;28;40628;-79
2022/09/22 00:51:24;;;;;;;2.53;1.90;;;;;;;7.22;66.63;99723.53;5089762;28;43670;-79
2022/09/22 00:53:54;;;;;;;2.00;1.60;;;;;;;7.21;66.30;99727.09;5074407;28;42696;-79
2022/09/22 00:56:25;;;;;;;2.27;2.00;;;;;;;7.07;66.49;99703.00;5092571;28;40752;-80
2022/09/22 00:59:01;;;;;;;1.30;1.20;;;;;;;7.19;66.97;99718.38;5057575;28;40539;-80
2022/09/22 01:01:29;;;;;;;4.37;1.90;;;;;;;7.13;66.63;99708.91;5089458;28;44210;-79
2022/09/22 01:03:57;;;;;;;2.10;1.90;;;;;;;7.16;66.90;99719.34;5074323;28;42428;-79
2022/09/22 01:06:28;;;;;;;4.33;2.17;;;;;;;7.12;66.99;99717.72;5092676;28;39931;-79
2022/09/22 01:08:57;;;;;;;2.83;2.00;;;;;;;7.12;66.63;99714.25;5074292;28;41252;-79
2022/09/22 01:11:26;;;;;;;1.80;1.43;;;;;;;7.10;66.78;99713.44;5074365;28;41953;-79
2022/09/22 01:14:06;;;;;;;1.70;1.57;;;;;;;7.08;66.80;99700.31;5092314;28;42115;-79
2022/09/22 01:16:52;;;;;;;1.97;1.77;;;;;;;6.95;66.78;99688.47;5089378;28;40938;-78
2022/09/22 01:19:56;;;;;;;2.27;1.93;;;;;;;7.05;66.65;99700.41;5057130;28;40839;-79
2022/09/22 01:22:58;;;;;;;2.07;1.67;;;;;;;7.02;66.90;99699.69;5049967;28;42763;-79
2022/09/22 01:25:45;;;;;;;1.60;1.40;;;;;;;7.00;66.66;99696.22;5088352;28;43008;-79
2022/09/22 01:28:33;;;;;;;2.23;1.73;;;;;;;6.88;66.83;99680.84;5074003;28;38859;-79
2022/09/22 01:31:07;;;;;;;1.60;1.50;;;;;;;6.96;66.73;99699.88;5057334;28;40951;-79
2022/09/22 01:33:44;;;;;;;1.83;1.43;;;;;;;6.94;66.55;99701.69;5073929;28;41812;-80
2022/09/22 01:36:24;;;;;;;2.30;1.50;;;;;;;6.92;66.86;99695.66;5073871;28;42410;-79
2022/09/22 01:39:02;;;;;;;1.47;1.30;;;;;;;6.75;66.63;99670.75;5092577;28;40799;-80
2022/09/22 01:41:53;;;;;;;2.33;1.47;;;;;;;6.87;66.79;99700.19;5078077;28;40820;-80
2022/09/22 01:44:28;;;;;;;1.47;1.20;;;;;;;6.85;66.57;99701.09;5077736;28;42563;-79
2022/09/22 01:47:02;;;;;;;1.53;1.10;;;;;;;6.76;66.85;99682.13;5060781;28;42110;-79
2022/09/22 01:49:35;;;;;;;2.00;1.33;;;;;;;6.81;67.07;99694.22;5077451;28;40349;-79
2022/09/22 01:52:08;;;;;;;1.70;1.60;;;;;;;6.80;67.03;99689.00;5091611;28;41751;-80
2022/09/22 01:54:41;;;;;;;2.17;1.80;;;;;;;6.77;66.76;99695.25;5060576;28;41504;-79
2022/09/22 01:57:16;;;;;;;1.70;1.47;;;;;;;6.75;66.99;99697.06;5060248;28;42876;-80
2022/09/22 01:59:51;;;;;;;1.37;1.20;;;;;;;6.71;67.13;99684.03;5091561;28;40079;-79
2022/09/22 02:02:25;;;;;;;1.73;1.30;;;;;;;6.62;66.99;99676.47;5074226;28;42644;-79
2022/09/22 02:04:57;;;;;;;3.03;1.60;;;;;;;6.68;67.16;99689.41;5060348;28;42018;-79
2022/09/22 02:07:29;;;;;;;1.87;1.40;;;;;;;6.65;67.02;99685.13;5091267;28;42219;-79
2022/09/22 02:10:00;;;;;;;1.67;1.50;;;;;;;6.64;66.96;99693.06;5092500;28;39987;-79
2022/09/22 02:12:28;;;;;;;1.60;1.43;;;;;;;6.60;67.23;99687.03;5092192;28;41695;-79
2022/09/22 02:14:56;;;;;;;1.57;1.30;;;;;;;6.46;67.19;99663.81;5060335;28;42010;-79
2022/09/22 02:17:25;;;;;;;1.90;1.70;;;;;;;6.49;66.91;99673.38;5076739;28;42060;-79
2022/09/22 02:19:53;;;;;;;2.00;1.50;;;;;;;6.54;67.66;99679.38;5077198;28;39302;-79
2022/09/22 02:22:21;;;;;;;2.97;1.47;;;;;;;6.56;67.64;99680.16;5060137;28;41734;-79
2022/09/22 02:24:49;;;;;;;1.93;1.43;;;;;;;6.55;68.38;99674.97;5076813;28;41674;-79
2022/09/22 02:27:25;;;;;;;1.70;1.40;;;;;;;6.38;68.10;99650.06;5076723;28;42331;-79
2022/09/22 02:29:58;;;;;;;1.70;1.40;;;;;;;6.51;67.66;99678.59;5073942;28;39885;-79
2022/09/22 02:32:29;;;;;;;1.83;1.20;;;;;;;6.40;67.81;99655.28;5060334;28;40709;-79
2022/09/22 02:34:57;;;;;;;1.70;1.30;;;;;;;6.48;67.93;99676.91;5074013;28;42730;-79
2022/09/22 02:37:34;;;;;;;2.30;1.50;;;;;;;6.47;68.13;99670.78;5075921;28;42301;-79
2022/09/22 02:40:10;;;;;;;1.57;1.30;;;;;;;6.47;68.36;99667.31;5077309;28;39918;-79
2022/09/22 02:42:43;;;;;;;2.00;1.90;;;;;;;6.45;68.04;99666.50;5092162;28;42656;-79
2022/09/22 02:45:17;;;;;;;2.07;1.60;;;;;;;6.44;67.98;99675.28;5077045;28;41534;-79
2022/09/22 02:47:52;;;;;;;1.70;1.60;;;;;;;6.41;67.92;99671.00;5076213;28;41360;-79
2022/09/22 02:50:22;;;;;;;1.73;1.63;;;;;;;6.36;68.00;99666.78;5091000;28;40183;-79
2022/09/22 02:52:52;;;;;;;1.70;1.47;;;;;;;6.40;67.85;99668.44;5059375;28;40174;-79
2022/09/22 02:55:20;;;;;;;1.63;1.20;;;;;;;6.39;68.25;99671.97;5093493;28;42424;-80
2022/09/22 02:57:48;;;;;;;1.87;1.40;;;;;;;6.37;68.14;99673.78;5093190;28;43070;-79
2022/09/22 03:00:15;;;;;;;3.10;1.60;;;;;;;6.25;68.06;99661.03;5059705;28;38782;-80
2022/09/22 03:02:43;;;;;;;1.67;1.53;;;;;;;6.32;68.01;99675.69;5075873;28;40948;-79
2022/09/22 03:05:12;;;;;;;2.10;1.43;;;;;;;6.25;68.04;99663.66;5059383;28;41679;-79
2022/09/22 03:07:40;;;;;;;1.57;1.47;;;;;;;6.29;68.15;99676.66;5094070;28;42326;-79
2022/09/22 03:10:09;;;;;;;1.20;1.03;;;;;;;6.27;67.98;99672.34;5076230;28;39626;-79
2022/09/22 03:12:41;;;;;;;1.53;1.30;;;;;;;6.25;68.36;99675.03;5076054;28;40389;-79
2022/09/22 03:15:10;;;;;;;2.17;1.20;;;;;;;6.23;68.15;99681.25;5077091;28;41971;-79
2022/09/22 03:17:38;;;;;;;2.43;1.63;;;;;;;6.22;68.50;99669.00;5058927;28;41676;-79
2022/09/22 03:20:08;;;;;;;1.63;1.30;;;;;;;6.21;68.31;99662.03;5094519;28;40106;-79
2022/09/22 03:22:37;;;;;;;1.90;1.30;;;;;;;6.11;68.37;99651.81;5094015;28;42843;-79
2022/09/22 03:25:05;;;;;;;2.80;1.63;;;;;;;6.18;68.63;99664.78;5093118;28;42673;-79
2022/09/22 03:27:33;;;;;;;1.30;1.20;;;;;;;6.15;68.93;99657.84;5093675;28;42778;-79
2022/09/22 03:30:02;;;;;;;2.77;1.60;;;;;;;6.16;69.01;99658.69;5094130;28;40002;-79
2022/09/22 03:32:31;;;;;;;1.70;1.20;;;;;;;6.12;68.60;99655.28;5075771;28;40594;-79
2022/09/22 03:34:59;;;;;;;2.80;1.80;;;;;;;6.10;68.81;99650.06;5075928;28;42682;-80
2022/09/22 03:37:26;;;;;;;2.73;1.50;;;;;;;6.09;68.54;99658.88;5075291;28;42646;-80
2022/09/22 03:39:55;;;;;;;2.17;1.30;;;;;;;5.98;68.75;99636.47;5075830;28;39881;-79
2022/09/22 03:42:23;;;;;;;1.20;1.10;;;;;;;6.06;68.85;99663.34;5075692;28;41667;-79
2022/09/22 03:44:51;;;;;;;1.80;1.43;;;;;;;6.05;68.49;99667.78;5076006;28;42952;-79
2022/09/22 03:47:19;;;;;;;2.33;1.20;;;;;;;6.02;68.76;99667.88;5075670;28;41304;-80
2022/09/22 03:49:46;;;;;;;1.00;1.00;;;;;;;5.90;68.53;99641.97;5075943;28;38911;-79
2022/09/22 03:52:14;;;;;;;1.90;1.40;;;;;;;5.98;68.64;99660.97;5093132;28;41779;-79
2022/09/22 03:54:42;;;;;;;3.17;1.50;;;;;;;5.96;69.07;99660.16;5075392;28;42267;-80
2022/09/22 03:57:11;;;;;;;2.90;1.63;;;;;;;5.94;68.99;99656.72;5093591;28;43136;-79
2022/09/22 03:59:39;;;;;;;1.03;1.03;;;;;;;5.92;69.05;99661.19;5075466;28;38856;-79
2022/09/22 04:02:07;;;;;;;1.50;1.40;;;;;;;5.90;69.01;99657.75;5093322;28;41542;-80
2022/09/22 04:04:34;;;;;;;1.67;1.30;;;;;;;5.77;69.07;99640.59;5075238;28;43019;-79
2022/09/22 04:07:02;;;;;;;1.73;1.37;;;;;;;5.89;69.02;99656.00;5093566;28;42899;-80
2022/09/22 04:09:30;;;;;;;2.03;1.30;;;;;;;5.87;68.85;99657.78;5075050;28;38736;-79
2022/09/22 04:11:59;;;;;;;1.53;1.30;;;;;;;5.87;68.91;99651.66;5092413;28;41858;-79
2022/09/22 04:14:28;;;;;;;1.40;1.30;;;;;;;5.83;69.12;99656.16;5092385;28;42689;-79
2022/09/22 04:16:56;;;;;;;1.30;1.10;;;;;;;5.81;68.81;99657.97;5075139;28;41616;-79
2022/09/22 04:19:24;;;;;;;1.10;1.00;;;;;;;5.64;68.91;99633.97;5074663;28;41369;-79
2022/09/22 04:21:51;;;;;;;1.27;1.10;;;;;;;5.79;69.23;99654.53;5075523;28;41088;-79
2022/09/22 04:24:19;;;;;;;1.67;1.57;;;;;;;5.78;68.90;99655.44;5092658;28;42818;-79
2022/09/22 04:26:47;;;;;;;1.43;1.27;;;;;;;5.75;68.99;99647.66;5092359;28;43183;-79
2022/09/22 04:29:14;;;;;;;2.23;1.27;;;;;;;5.74;69.02;99651.19;5074762;28;40298;-79
2022/09/22 04:31:44;;;;;;;1.37;1.27;;;;;;;5.71;69.07;99646.00;5075164;28;40666;-79
2022/09/22 04:34:11;;;;;;;1.07;1.00;;;;;;;5.71;69.20;99652.13;5058349;28;41749;-79
2022/09/22 04:36:39;;;;;;;1.00;1.00;;;;;;;5.71;69.61;99656.53;5074653;28;41777;-79
2022/09/22 04:39:07;;;;;;;1.30;1.10;;;;;;;5.67;69.44;99649.66;5074334;28;40093;-79
2022/09/22 04:41:35;;;;;;;1.50;1.30;;;;;;;5.52;69.32;99629.94;5092987;28;41724;-79
2022/09/22 04:44:02;;;;;;;1.63;1.30;;;;;;;5.65;69.24;99651.47;5074738;28;43807;-79
2022/09/22 04:46:30;;;;;;;1.30;1.20;;;;;;;5.66;69.38;99661.06;5074712;28;42710;-80
2022/09/22 04:49:00;;;;;;;1.20;1.10;;;;;;;5.63;69.31;99653.28;5091490;28;39665;-79
2022/09/22 04:51:27;;;;;;;1.80;1.30;;;;;;;5.62;69.24;99652.41;5092842;28;41780;-79
2022/09/22 04:53:55;;;;;;;1.23;1.10;;;;;;;5.58;69.91;99644.66;5074536;28;42132;-79
2022/09/22 04:56:23;;;;;;;1.83;1.50;;;;;;;5.60;69.86;99656.84;5074699;28;42573;-79
2022/09/22 04:58:50;;;;;;;2.00;1.40;;;;;;;5.48;69.90;99630.94;5074360;28;39011;-79
2022/09/22 05:01:18;;;;;;;1.50;1.40;;;;;;;5.58;69.98;99648.16;5074559;28;41506;-79
2022/09/22 05:03:46;;;;;;;2.50;1.60;;;;;;;5.58;69.77;99649.91;5074379;28;41723;-79
2022/09/22 05:06:15;;;;;;;1.87;1.50;;;;;;;5.58;69.79;99649.91;5074437;28;42141;-79
2022/09/22 05:08:43;;;;;;;1.93;1.30;;;;;;;5.58;69.74;99652.53;5074050;28;39893;-80
2022/09/22 05:11:11;;;;;;;2.00;1.40;;;;;;;5.58;69.66;99649.91;5074567;28;41176;-79
2022/09/22 05:13:39;;;;;;;1.40;1.30;;;;;;;5.58;69.86;99649.91;5073536;28;41922;-80
2022/09/22 05:16:07;;;;;;;1.33;1.20;;;;;;;5.49;69.70;99634.44;5091649;28;42446;-79
2022/09/22 05:18:35;;;;;;;1.17;1.10;;;;;;;5.58;69.66;99656.03;5091268;28;40028;-79
2022/09/22 05:21:03;;;;;;;2.00;1.20;;;;;;;5.59;69.67;99657.75;5074352;28;40314;-79
2022/09/22 05:23:33;;;;;;;1.73;1.50;;;;;;;5.61;70.05;99655.09;5090755;28;43008;-79
2022/09/22 05:26:00;;;;;;;1.70;1.50;;;;;;;5.62;69.95;99662.06;5057547;28;42283;-79
2022/09/22 05:28:28;;;;;;;2.13;1.60;;;;;;;5.62;69.99;99656.81;5073944;28;39092;-79
2022/09/22 05:30:56;;;;;;;1.60;1.50;;;;;;;5.63;70.24;99654.13;5090994;28;41430;-79
2022/09/22 05:33:23;;;;;;;1.50;1.40;;;;;;;5.60;70.26;99651.59;5073900;28;44821;-79
2022/09/22 05:35:51;;;;;;;1.53;1.33;;;;;;;5.68;70.26;99661.91;5091572;28;42308;-79
2022/09/22 05:38:19;;;;;;;1.93;1.70;;;;;;;5.58;70.18;99645.50;5073750;28;38627;-80
2022/09/22 05:40:48;;;;;;;2.93;2.13;;;;;;;5.61;70.17;99641.94;5092377;28;42741;-79
2022/09/22 05:43:16;;;;;;;1.97;1.77;;;;;;;5.75;70.10;99668.69;5074078;28;42816;-80
2022/09/22 05:45:44;;;;;;;2.13;1.33;;;;;;;5.79;70.18;99665.06;5091273;28;42345;-80
2022/09/22 05:48:12;;;;;;;2.10;1.77;;;;;;;5.85;69.76;99664.00;5057255;28;40267;-80
2022/09/22 05:50:39;;;;;;;3.30;1.80;;;;;;;5.91;69.98;99667.34;5091950;28;41944;-79
2022/09/22 05:53:09;;;;;;;2.60;1.90;;;;;;;5.99;69.90;99673.22;5090511;28;42829;-79
2022/09/22 05:55:39;;;;;;;1.93;1.70;;;;;;;6.12;69.67;99674.56;5090650;28;43202;-79
2022/09/22 05:58:10;;;;;;;5.80;1.90;;;;;;;6.27;69.92;99675.84;5073781;28;39594;-79
2022/09/22 06:00:39;;;;;;;2.30;2.10;;;;;;;6.40;69.67;99668.44;5074127;28;42090;-79
2022/09/22 06:03:07;;;;;;;2.93;2.10;;;;;;;6.59;69.45;99680.06;5073566;28;42839;-80
2022/09/22 06:05:35;;;;;;;3.37;2.40;;;;;;;6.73;69.50;99676.97;5090647;28;42052;-80
2022/09/22 06:08:05;;;;;;;5.77;3.37;;;;;;;6.90;70.26;99668.50;5090986;28;40018;-79
2022/09/22 06:10:34;;;;;;;7.33;4.20;;;;;;;7.03;70.17;99681.19;5073506;28;41782;-79
2022/09/22 06:13:03;;;;;;;6.57;4.63;;;;;;;7.20;69.90;99683.22;5091585;28;43786;-79
2022/09/22 06:15:34;;;;;;;6.80;4.07;;;;;;;7.22;69.92;99649.78;5073734;28;42313;-79
2022/09/22 06:18:04;;;;;;;7.73;5.00;;;;;;;7.55;70.58;99674.03;5057080;28;39529;-79
2022/09/22 06:20:32;;;;;;;7.13;5.30;;;;;;;7.64;70.55;99664.94;5073220;28;41978;-79
2022/09/22 06:23:00;;;;;;;7.23;4.63;;;;;;;7.88;70.08;99677.19;5073077;28;43187;-79
2022/09/22 06:25:28;;;;;;;9.30;5.13;;;;;;;8.03;70.22;99681.88;5073925;28;41342;-79
2022/09/22 06:28:01;;;;;;;6.13;4.47;;;;;;;8.04;70.08;99653.69;5093756;28;40218;-79
2022/09/22 06:30:29;;;;;;;7.80;4.27;;;;;;;8.28;70.77;99674.66;5091962;28;41939;-80
2022/09/22 06:32:58;;;;;;;7.30;5.03;;;;;;;8.39;71.61;99671.66;5076769;28;43580;-80
2022/09/22 06:35:30;;;;;;;6.37;4.73;;;;;;;8.54;70.75;99680.72;5076247;28;41015;-80
2022/09/22 06:37:58;;;;;;;8.10;5.30;;;;;;;8.64;70.36;99679.44;5076785;28;38645;-80
2022/09/22 06:40:26;;;;;;;9.60;4.93;;;;;;;8.74;70.19;99679.91;5076701;28;40548;-80
2022/09/22 06:42:58;;;;;;;6.50;4.53;;;;;;;8.81;69.80;99681.34;5076355;28;41589;-80
2022/09/22 06:45:26;;;;;;;5.17;4.00;;;;;;;8.68;69.79;99646.66;5091561;28;42231;-80
2022/09/22 06:47:59;;;;;;;6.60;4.87;;;;;;;8.90;69.92;99668.59;5059860;28;39930;-80
2022/09/22 06:50:29;;;;;;;7.37;4.67;;;;;;;9.00;70.18;99675.22;5091704;28;41767;-79
2022/09/22 06:52:58;;;;;;;7.03;5.00;;;;;;;9.07;70.16;99672.31;5076620;28;41732;-80
2022/09/22 06:55:27;;;;;;;6.17;4.60;;;;;;;9.23;69.92;99674.22;5059619;28;41977;-80
2022/09/22 06:57:57;;;;;;;5.87;4.60;;;;;;;9.50;69.93;99677.44;5076372;28;38841;-80
2022/09/22 07:00:31;;;;;;;6.60;5.00;;;;;;;9.90;68.95;99678.22;5076355;28;42138;-80
2022/09/22 07:03:08;;;;;;;6.23;4.07;;;;;;;10.43;67.82;99681.88;5092758;28;42839;-80
2022/09/22 07:05:36;;;;;;;7.10;4.50;;;;;;;11.59;66.25;99686.53;5076532;28;41124;-80
2022/09/22 07:08:04;;;;;;;4.93;3.93;;;;;;;12.43;64.38;99684.56;5076371;28;40250;-80
2022/09/22 07:10:36;;;;;;;4.10;3.50;;;;;;;14.78;59.93;99694.91;5094166;28;41873;-80
2022/09/22 07:13:05;;;;;;;5.77;3.80;;;;;;;16.93;54.83;99717.97;5092394;28;43566;-78
2022/09/22 07:15:34;;;;;;;4.27;3.73;;;;;;;18.81;50.32;99729.84;5059252;28;42328;-79
2022/09/22 07:18:03;;;;;;;4.73;3.43;;;;;;;20.59;46.75;99759.34;5076281;28;40999;-79
2022/09/22 07:20:32;;;;;;;4.23;3.77;;;;;;;21.78;43.46;99771.59;5076200;28;42161;-80
2022/09/22 07:23:00;;;;;;;4.07;3.43;;;;;;;22.16;42.60;99759.03;5094187;28;43722;-80
2022/09/22 07:25:28;;;;;;;4.60;4.20;;;;;;;22.21;41.78;99762.16;5093784;28;42163;-79
2022/09/22 07:27:57;;;;;;;5.07;4.13;;;;;;;22.06;41.95;99766.31;5059473;28;39041;-79
2022/09/22 07:30:25;;;;;;;5.60;4.50;;;;;;;22.13;41.97;99748.56;5075995;28;41051;-79
2022/09/22 07:32:53;;;;;;;4.87;3.97;;;;;;;22.85;40.52;99761.31;5093872;28;43686;-80
2022/09/22 07:35:22;;;;;;;4.63;4.10;;;;;;;24.26;38.26;99781.13;5075207;28;42564;-81
2022/09/22 07:37:55;;;;;;;4.30;3.90;;;;;;;25.89;34.90;99788.69;5090239;28;41236;-80
2022/09/22 07:40:23;;;;;;;5.50;4.00;;;;;;;26.62;32.90;99746.94;5075790;28;43109;-80
2022/09/22 07:42:50;;;;;;;4.70;4.30;;;;;;;28.10;31.08;99799.13;5075794;28;41951;-80
2022/09/22 07:45:20;;;;;;;4.23;3.33;;;;;;;26.96;31.98;99779.22;5075782;28;42420;-80
2022/09/22 07:50:54;;;;;;;6.20;4.00;;;;;;;23.56;35.72;99772.16;5018359;28;41199;-79
2022/09/22 07:53:23;;;;;;;5.90;3.63;;;;;;;22.18;37.82;99763.31;5084350;28;42640;-80
2022/09/22 07:55:51;;;;;;;13.93;4.70;;;;;;;21.01;39.82;99750.06;5058866;28;41148;-80
2022/09/22 07:58:20;;;;;;;6.10;3.70;;;;;;;19.91;41.51;99715.97;5093693;28;40706;-79
2022/09/22 08:00:47;;;;;;;4.00;3.53;;;;;;;19.23;43.29;99725.44;5058439;28;40908;-80
2022/09/22 08:03:15;;;;;;;5.07;3.27;;;;;;;18.61;44.26;99706.50;5058742;28;41815;-78
2022/09/22 08:05:45;;;;;;;4.53;3.67;;;;;;;18.38;45.42;99704.81;5058850;28;42254;-80
2022/09/22 08:08:13;;;;;;;8.70;3.80;;;;;;;19.17;44.66;99719.72;5058571;28;40069;-80
2022/09/22 08:10:42;;;;;;;4.53;3.43;;;;;;;20.07;43.67;99726.25;5092435;28;41532;-80
2022/09/22 08:13:10;;;;;;;3.37;2.90;;;;;;;20.72;42.89;99701.56;5075581;28;42848;-80
2022/09/22 08:15:40;;;;;;;5.53;2.70;;;;;;;21.41;41.33;99728.38;5075391;28;42356;-80
2022/09/22 08:18:08;;;;;;;5.77;4.40;;;;;;;22.01;39.95;99744.31;5075322;28;38737;-80
2022/09/22 08:20:36;;;;;;;3.53;3.10;;;;;;;22.23;40.79;99730.50;5074921;28;41703;-80
2022/09/22 08:23:04;;;;;;;2.40;2.20;;;;;;;22.75;39.85;99738.88;5074997;28;42841;-80
2022/09/22 08:25:32;;;;;;;2.73;2.50;;;;;;;24.13;37.24;99754.47;5074633;28;42535;-80
2022/09/22 08:28:03;;;;;;;2.70;2.50;;;;;;;25.17;35.10;99738.81;5074828;28;40127;-81
2022/09/22 08:30:31;;;;;;;2.90;2.60;;;;;;;26.82;32.55;99780.81;5074801;28;40697;-81
2022/09/22 08:33:00;;;;;;;3.03;2.67;;;;;;;28.73;30.42;99789.59;5074897;28;42982;-81
2022/09/22 08:35:28;;;;;;;2.50;2.30;;;;;;;29.78;29.48;99789.97;5091807;28;42594;-80
2022/09/22 08:37:55;;;;;;;2.23;2.10;;;;;;;30.86;28.04;99794.94;5092936;28;40034;-80
2022/09/22 08:40:23;;;;;;;2.78;1.92;;;;;;;31.61;27.48;99790.34;5074546;28;40685;-81
2022/09/22 08:42:53;;;;;;;4.07;2.55;;;;;;;31.49;27.76;99790.13;5093027;28;42871;-81
2022/09/22 08:45:31;;;;;;;2.55;2.33;;;;;;;31.07;27.17;99775.66;5074460;28;43416;-80
2022/09/22 08:53:42;;;;;;;3.77;1.83;;;;;;;31.37;25.22;99791.78;5074695;28;42474;-81
2022/09/22 08:56:19;;;;;;;2.80;2.20;;;;;;;30.85;26.46;99792.41;5074585;28;43620;-80
2022/09/22 08:58:57;;;;;;;2.23;1.80;;;;;;;31.16;25.67;99764.56;5090837;28;40119;-80
2022/09/22 09:01:55;;;;;;;2.43;2.20;;;;;;;32.32;24.85;99790.56;5089540;28;41553;-80
2022/09/22 09:04:51;;;;;;;2.20;2.00;;;;;;;33.55;24.03;99792.22;5074502;28;42925;-81
2022/09/22 09:07:29;;;;;;;3.10;2.17;;;;;;;32.84;24.71;99786.88;5073756;28;42296;-81
2022/09/22 09:10:05;;;;;;;2.13;1.70;;;;;;;31.84;25.92;99776.25;5092620;28;39477;-80
2022/09/22 09:12:55;;;;;;;4.07;2.10;;;;;;;31.22;26.39;99755.50;5074480;28;40806;-81
2022/09/22 09:15:36;;;;;;;2.13;1.87;;;;;;;29.79;27.97;99758.06;5057413;28;45219;-80
2022/09/22 09:18:10;;;;;;;2.00;1.73;;;;;;;28.45;29.35;99747.69;5090618;28;42772;-80
2022/09/22 09:20:44;;;;;;;2.40;1.70;;;;;;;27.02;30.38;99705.13;5071272;28;40960;-80
2022/09/22 09:23:18;;;;;;;2.07;1.93;;;;;;;26.20;32.69;99722.81;5072715;28;41742;-80
2022/09/22 09:25:51;;;;;;;3.70;1.87;;;;;;;25.38;34.06;99731.03;5089250;28;42547;-80
2022/09/22 09:28:22;;;;;;;4.20;1.80;;;;;;;24.74;34.52;99704.63;5090699;28;42346;-80
2022/09/22 09:30:52;;;;;;;3.07;1.93;;;;;;;24.59;35.12;99718.00;5074179;28;39120;-79
2022/09/22 09:33:30;;;;;;;3.87;2.20;;;;;;;25.19;34.59;99715.09;5057088;28;41009;-81
2022/09/22 09:35:59;;;;;;;2.10;1.40;;;;;;;25.34;33.60;99724.25;5089700;28;42794;-79
2022/09/22 09:38:29;;;;;;;1.90;1.60;;;;;;;24.58;34.39;99705.47;5073616;28;43420;-80
2022/09/22 09:41:02;;;;;;;2.77;1.50;;;;;;;24.03;35.03;99710.44;5073897;28;41966;-79
2022/09/22 09:43:32;;;;;;;3.37;1.90;;;;;;;23.42;36.41;99700.53;5073636;28;40483;-80
2022/09/22 09:46:13;;;;;;;2.33;1.57;;;;;;;22.88;37.32;99686.19;5057179;28;41529;-80
2022/09/22 09:48:58;;;;;;;3.00;1.80;;;;;;;22.44;37.97;99689.75;5089886;28;42067;-80
2022/09/22 09:51:28;;;;;;;1.53;1.43;;;;;;;22.08;39.88;99678.00;5088116;28;39960;-79
2022/09/22 09:54:00;;;;;;;2.57;1.57;;;;;;;21.92;38.61;99680.44;5092151;28;42422;-80
2022/09/22 09:56:30;;;;;;;1.90;1.60;;;;;;;22.06;38.21;99682.69;5088937;28;43896;-78
2022/09/22 10:01:45;;;;;;;2.10;1.40;;;;;;;21.91;39.40;99655.31;5061075;28;38935;-79
2022/09/22 10:04:30;;;;;;;3.77;2.00;;;;;;;21.86;39.66;99655.78;5077065;28;42483;-80
2022/09/22 10:07:12;;;;;;;1.73;1.60;;;;;;;21.88;40.05;99652.09;5074219;28;42692;-79
2022/09/22 10:09:41;;;;;;;2.50;1.67;;;;;;;22.25;38.92;99677.22;5074050;28;43261;-80
2022/09/22 10:12:23;;;;;;;2.00;1.60;;;;;;;22.83;39.24;99666.91;5076866;28;41107;-80
2022/09/22 10:14:52;;;;;;;1.57;1.47;;;;;;;24.30;37.75;99675.06;5092117;28;42601;-79
2022/09/22 10:17:22;;;;;;;2.17;1.40;;;;;;;25.95;34.61;99692.16;5060054;28;44180;-79
2022/09/22 10:19:50;;;;;;;1.30;1.07;;;;;;;27.20;32.79;99692.03;5076842;28;42552;-80
2022/09/22 10:22:35;;;;;;;1.53;1.07;;;;;;;27.48;31.64;99701.34;5093652;28;39958;-80
2022/09/22 10:25:04;;;;;;;3.40;1.37;;;;;;;27.46;31.99;99697.94;5059830;28;40808;-80
2022/09/22 10:27:32;;;;;;;2.77;1.20;;;;;;;27.31;30.83;99688.91;5094619;28;43829;-79
2022/09/22 10:30:23;;;;;;;1.33;1.23;;;;;;;27.56;32.35;99694.19;5059816;28;43361;-80
2022/09/22 10:33:12;;;;;;;1.17;1.00;;;;;;;28.20;30.26;99696.22;5094625;28;39985;-79
2022/09/22 10:35:42;;;;;;;1.83;1.00;;;;;;;29.45;28.45;99723.28;5075826;28;40816;-81
2022/09/22 10:38:18;;;;;;;3.03;1.03;;;;;;;30.31;27.09;99709.25;5093491;28;42807;-80
2022/09/22 10:40:48;;;;;;;1.33;1.23;;;;;;;31.11;26.03;99731.50;5076374;28;43157;-79
2022/09/22 10:43:34;;;;;;;1.00;0.90;;;;;;;31.87;26.33;99723.78;5093008;28;40242;-80
2022/09/22 10:46:17;;;;;;;1.27;0.87;;;;;;;32.50;24.86;99727.69;5073622;28;41544;-80
2022/09/22 10:48:48;;;;;;;1.47;0.90;;;;;;;32.46;24.77;99729.16;5092594;28;42479;-81
2022/09/22 10:51:26;;;;;;;0.80;0.80;;;;;;;33.28;23.13;99741.25;5090101;28;43230;-80
2022/09/22 10:54:25;;;;;;;0.90;0.90;;;;;;;34.52;21.39;99750.34;5093528;28;39894;-80
2022/09/22 10:56:56;;;;;;;1.27;1.10;;;;;;;34.69;21.27;99733.22;5076489;28;41717;-81
2022/09/22 10:59:40;;;;;;;1.45;1.10;;;;;;;34.68;22.11;99728.78;5075986;28;43034;-81
2022/09/22 11:02:33;;;;;;;1.67;1.55;;;;;;;34.83;21.68;99734.75;5058738;28;41252;-79
2022/09/22 11:12:14;;;;;;;1.48;1.10;;;;;;;34.89;22.12;99720.06;5059570;28;41194;-81
2022/09/22 11:14:10;;;;;;;1.27;0.63;;;;;;;40.56;14.89;99761.34;5058989;28;42082;-81
2022/09/22 11:16:54;;;;;;;1.73;0.82;;;;;;;41.70;15.82;99740.84;5076100;28;39365;-81
2022/09/22 11:19:40;;;;;;;2.08;0.70;;;;;;;42.66;14.12;99748.22;5092770;28;42691;-81
2022/09/22 11:22:27;;;;;;;1.02;0.70;;;;;;;43.55;13.36;99744.41;5058478;28;41583;-82
2022/09/22 11:25:07;;;;;;;1.23;0.75;;;;;;;44.02;12.65;99727.00;5091099;28;42156;-81
2022/09/22 11:27:51;;;;;;;0.70;0.70;;;;;;;43.50;13.16;99733.31;5073445;28;39967;-81
2022/09/22 11:30:21;;;;;;;0.82;0.50;;;;;;;41.53;14.10;99718.88;5075797;28;40693;-80
2022/09/22 11:33:18;;;;;;;0.90;0.70;;;;;;;40.01;14.91;99712.69;5075367;28;42828;-81
2022/09/22 11:36:10;;;;;;;0.88;0.70;;;;;;;39.04;16.09;99701.84;5074978;28;42346;-81
2022/09/22 11:38:56;;;;;;;1.98;0.93;;;;;;;39.75;15.58;99703.34;5068412;28;39909;-82
2022/09/22 11:41:31;;;;;;;1.38;1.00;;;;;;;40.54;14.82;99692.19;5072661;28;41508;-81
2022/09/22 11:44:28;;;;;;;1.52;0.77;;;;;;;41.44;15.21;99695.47;5075150;28;43410;-81
2022/09/22 11:47:22;;;;;;;1.05;0.70;;;;;;;42.30;14.47;99694.56;5075775;28;41913;-81
2022/09/22 11:50:07;;;;;;;0.77;0.68;;;;;;;42.85;13.99;99696.34;5075565;28;40125;-80
2022/09/22 11:52:52;;;;;;;0.93;0.60;;;;;;;43.21;13.86;99684.97;5058536;28;40713;-81
2022/09/22 11:55:32;;;;;;;0.65;0.65;;;;;;;43.53;13.14;99685.25;5090196;28;42846;-81
2022/09/22 11:58:07;;;;;;;0.60;0.60;;;;;;;43.71;13.04;99680.97;5074796;28;43488;-81
2022/09/22 12:00:44;;;;;;;1.60;0.70;;;;;;;43.83;13.22;99672.19;5075229;28;40926;-81
2022/09/22 12:03:16;;;;;;;1.40;0.70;;;;;;;44.31;12.37;99667.47;5090386;28;41787;-83
2022/09/22 12:05:48;;;;;;;1.27;0.80;;;;;;;44.47;12.26;99682.13;5075391;28;43556;-81
2022/09/22 12:08:19;;;;;;;1.50;1.23;;;;;;;44.94;12.43;99670.03;5075187;28;42199;-81
2022/09/22 12:10:49;;;;;;;1.13;0.77;;;;;;;44.86;11.63;99665.97;5058503;28;39084;-82
2022/09/22 12:13:20;;;;;;;3.97;3.67;;;;;;;44.91;10.70;99681.81;5057915;28;40874;-81
2022/09/22 12:16:01;;;;;;;1.40;1.30;;;;;;;44.92;11.81;99673.13;5090241;28;42600;-81
2022/09/22 12:18:39;;;;;;;0.95;0.70;;;;;;;45.11;11.56;99653.56;5090627;28;42082;-81
2022/09/22 12:21:23;;;;;;;1.63;1.00;;;;;;;44.01;11.61;99657.53;5090064;28;40893;-82